Time;durP1;ratioP1;P1;durP2;ratioP2;P2;SDS_P1;SDS_P2;PMS_P1;PMS_P2;Temp;Humidity;BMP_temperature;BMP_pressure;BME280_temperature;BME280_humidity;BME280_pressure;Samples;Min_cycle;Max_cycle;Signal;HPM_P1;HPM_P2
2022/05/11 00:00:40;;;;;;;16.17;11.10;;;18.20;78.00;;;;;;5053377;28;20448;-77
2022/05/11 00:03:06;;;;;;;16.10;10.30;;;18.20;78.30;;;;;;5054014;28;20516;-78
2022/05/11 00:05:33;;;;;;;19.50;11.37;;;18.20;78.30;;;;;;5054099;28;20421;-78
2022/05/11 00:07:58;;;;;;;27.20;11.53;;;18.20;78.30;;;;;;5052389;28;20486;-77
2022/05/11 00:10:24;;;;;;;26.73;11.87;;;18.20;78.30;;;;;;5053913;28;20420;-77
2022/05/11 00:12:51;;;;;;;20.67;11.63;;;18.20;78.40;;;;;;5054380;28;20526;-77
2022/05/11 00:15:24;;;;;;;22.13;11.87;;;18.10;78.40;;;;;;5054128;28;20220;-76
2022/05/11 00:17:50;;;;;;;20.37;11.90;;;18.10;78.60;;;;;;5056457;28;20424;-77
2022/05/11 00:20:18;;;;;;;24.80;13.40;;;18.00;78.70;;;;;;5054592;28;20424;-77
2022/05/11 00:22:44;;;;;;;28.20;13.17;;;18.00;78.90;;;;;;5055621;28;21016;-77
2022/05/11 00:25:13;;;;;;;27.70;12.80;;;18.00;79.00;;;;;;5055782;28;20416;-76
2022/05/11 00:27:39;;;;;;;28.20;13.03;;;18.00;79.20;;;;;;5054161;28;20468;-77
2022/05/11 00:30:06;;;;;;;27.13;13.37;;;17.90;79.20;;;;;;5052922;28;20927;-77
2022/05/11 00:32:32;;;;;;;20.80;12.27;;;17.90;79.50;;;;;;5051481;28;20889;-77
2022/05/11 00:34:58;;;;;;;24.37;12.53;;;17.90;79.60;;;;;;5052633;28;20433;-77
2022/05/11 00:37:24;;;;;;;25.67;12.87;;;17.80;79.70;;;;;;5051210;28;20797;-77
2022/05/11 00:39:50;;;;;;;23.73;11.20;;;17.80;79.70;;;;;;5052120;28;20193;-77
2022/05/11 00:42:16;;;;;;;15.20;10.33;;;17.80;79.90;;;;;;5051340;28;20497;-78
2022/05/11 00:44:42;;;;;;;15.70;10.23;;;17.80;79.70;;;;;;5051801;28;20424;-78
2022/05/11 00:47:28;;;;;;;17.53;10.00;;;17.70;79.70;;;;;;5052352;28;20422;-77
2022/05/11 00:50:05;;;;;;;17.60;10.87;;;17.70;80.00;;;;;;5050948;28;20498;-77
2022/05/11 00:52:43;;;;;;;14.37;9.40;;;17.60;80.20;;;;;;5052207;28;20442;-79
2022/05/11 00:55:22;;;;;;;14.83;9.77;;;17.60;80.30;;;;;;5051846;28;20933;-77
2022/05/11 00:57:57;;;;;;;31.17;10.87;;;17.60;80.30;;;;;;5054228;28;20424;-77
2022/05/11 01:00:25;;;;;;;14.40;9.33;;;17.60;80.20;;;;;;5059190;28;20423;-78
2022/05/11 01:03:11;;;;;;;17.83;10.00;;;17.60;80.30;;;;;;5054434;28;20950;-78
2022/05/11 01:05:36;;;;;;;14.10;9.13;;;17.50;80.00;;;;;;5052063;28;20419;-77
2022/05/11 01:08:02;;;;;;;14.97;9.10;;;17.50;80.00;;;;;;5051406;28;20940;-77
2022/05/11 01:10:32;;;;;;;16.67;9.53;;;17.50;79.90;;;;;;5050341;28;20185;-77
2022/05/11 01:13:01;;;;;;;18.40;10.50;;;17.50;80.20;;;;;;5055588;28;20543;-77
2022/05/11 01:15:30;;;;;;;15.90;8.33;;;17.50;79.90;;;;;;5050840;28;20442;-78
2022/05/11 01:17:57;;;;;;;13.97;9.33;;;17.50;79.60;;;;;;5052913;28;20436;-77
2022/05/11 01:20:24;;;;;;;18.30;9.17;;;17.60;79.20;;;;;;5054922;28;20561;-77
2022/05/11 01:23:18;;;;;;;8.67;7.30;;;17.60;79.00;;;;;;5050510;28;20463;-79
2022/05/11 01:25:43;;;;;;;13.07;8.80;;;17.60;78.40;;;;;;5047731;28;20462;-78
2022/05/11 01:28:14;;;;;;;14.87;9.10;;;17.60;78.60;;;;;;5051889;28;20519;-78
2022/05/11 01:30:42;;;;;;;21.33;10.90;;;17.70;78.90;;;;;;5052107;28;20211;-80
2022/05/11 01:33:12;;;;;;;16.80;9.60;;;17.70;78.60;;;;;;5051894;28;20951;-78
2022/05/11 01:36:15;;;;;;;15.63;8.97;;;17.70;78.70;;;;;;5048125;28;20433;-78
2022/05/11 01:38:43;;;;;;;15.83;8.30;;;17.70;78.60;;;;;;5050482;28;20424;-77
2022/05/11 01:41:16;;;;;;;15.20;8.77;;;17.60;78.70;;;;;;5051336;28;20603;-78
2022/05/11 01:43:42;;;;;;;13.20;8.10;;;17.60;78.60;;;;;;5047022;28;20571;-78
2022/05/11 01:46:08;;;;;;;10.70;7.97;;;17.60;78.70;;;;;;5050909;28;20523;-78
2022/05/11 01:48:34;;;;;;;12.33;7.67;;;17.60;78.40;;;;;;5051650;28;20589;-78
2022/05/11 01:51:03;;;;;;;10.43;7.10;;;17.60;77.80;;;;;;5051198;28;20919;-77
2022/05/11 01:53:29;;;;;;;12.23;7.47;;;17.60;77.70;;;;;;5051280;28;20215;-78
2022/05/11 01:55:55;;;;;;;10.33;7.77;;;17.70;77.70;;;;;;5050238;28;20516;-79
2022/05/11 01:58:25;;;;;;;11.23;7.90;;;17.70;77.60;;;;;;5050715;28;20431;-77
2022/05/11 02:00:51;;;;;;;12.33;7.30;;;17.60;77.60;;;;;;5052673;28;20504;-78
2022/05/11 02:03:18;;;;;;;12.77;7.03;;;17.60;77.70;;;;;;5053169;28;20431;-77
2022/05/11 02:08:30;;;;;;;10.63;8.20;;;17.60;77.80;;;;;;5054658;28;20995;-77
2022/05/11 02:10:56;;;;;;;9.37;6.80;;;17.60;77.70;;;;;;5053458;28;20505;-77
2022/05/11 02:13:22;;;;;;;11.47;7.50;;;17.60;77.70;;;;;;5054983;28;20455;-78
2022/05/11 02:15:49;;;;;;;9.97;7.33;;;17.60;78.00;;;;;;5056781;28;20282;-77
2022/05/11 02:18:15;;;;;;;11.13;7.40;;;17.50;78.00;;;;;;5073165;28;20234;-77
2022/05/11 02:20:41;;;;;;;11.77;7.60;;;17.50;78.10;;;;;;5067906;28;20431;-79
2022/05/11 02:23:07;;;;;;;10.60;7.17;;;17.50;78.30;;;;;;5072656;28;21002;-78
2022/05/11 02:25:33;;;;;;;10.33;7.20;;;17.50;78.00;;;;;;5069894;28;20186;-78
2022/05/11 02:27:58;;;;;;;10.73;7.20;;;17.60;77.80;;;;;;5054641;28;20426;-78
2022/05/11 02:30:29;;;;;;;13.23;7.57;;;17.50;77.80;;;;;;5051675;28;20186;-78
2022/05/11 02:32:55;;;;;;;11.97;7.97;;;17.60;78.00;;;;;;5049674;28;20235;-76
2022/05/11 02:35:22;;;;;;;10.83;7.50;;;17.60;77.70;;;;;;5048021;28;20745;-78
2022/05/11 02:37:57;;;;;;;10.67;7.73;;;17.70;78.00;;;;;;5053541;28;20433;-76
2022/05/11 02:40:26;;;;;;;10.17;7.17;;;17.60;78.10;;;;;;5052297;28;20431;-76
2022/05/11 02:42:52;;;;;;;12.63;7.43;;;17.60;78.30;;;;;;5053073;28;21080;-75
2022/05/11 02:45:19;;;;;;;16.00;8.30;;;17.70;78.30;;;;;;5053857;28;20522;-77
2022/05/11 02:47:45;;;;;;;11.23;7.20;;;17.60;78.30;;;;;;5056190;28;20309;-76
2022/05/11 02:50:15;;;;;;;11.87;7.70;;;17.70;77.80;;;;;;5059879;28;20423;-76
2022/05/11 02:52:40;;;;;;;12.57;7.13;;;17.70;77.80;;;;;;5058616;28;20423;-78
2022/05/11 02:55:07;;;;;;;13.67;8.03;;;17.70;77.80;;;;;;5055922;28;20423;-76
2022/05/11 02:57:32;;;;;;;11.10;7.10;;;17.70;77.80;;;;;;5053863;28;20191;-77
2022/05/11 02:59:59;;;;;;;13.33;6.57;;;17.70;77.60;;;;;;5055107;28;20428;-77
2022/05/11 03:02:25;;;;;;;10.97;7.30;;;17.70;77.70;;;;;;5054091;28;20585;-77
2022/05/11 03:04:51;;;;;;;10.50;7.40;;;17.80;77.60;;;;;;5047183;28;20418;-77
2022/05/11 03:07:18;;;;;;;15.50;7.67;;;17.70;77.60;;;;;;5054224;28;20188;-77
2022/05/11 03:09:44;;;;;;;9.20;6.80;;;17.70;77.80;;;;;;5068276;28;20479;-77
2022/05/11 03:12:11;;;;;;;11.97;7.20;;;17.70;77.80;;;;;;5061875;28;20985;-76
2022/05/11 03:14:38;;;;;;;10.33;7.33;;;17.80;77.70;;;;;;5062006;28;20426;-77
2022/05/11 03:17:04;;;;;;;9.70;6.80;;;17.80;77.60;;;;;;5063763;28;20500;-75
2022/05/11 03:19:30;;;;;;;11.43;7.70;;;17.70;77.70;;;;;;5052513;28;20529;-78
2022/05/11 03:21:57;;;;;;;11.03;7.33;;;17.70;77.60;;;;;;5053554;28;20562;-75
2022/05/11 03:24:23;;;;;;;13.17;7.80;;;17.80;77.60;;;;;;5053928;28;20433;-76
2022/05/11 03:26:49;;;;;;;11.10;7.70;;;17.70;77.30;;;;;;5057593;28;20946;-76
2022/05/11 03:29:15;;;;;;;10.53;7.10;;;17.70;77.40;;;;;;5056707;28;20431;-77
2022/05/11 03:34:36;;;;;;;10.33;7.27;;;17.70;77.40;;;;;;5058614;28;20213;-76
2022/05/11 03:34:39;;;;;;;10.70;7.30;;;17.70;77.40;;;;;;5059590;28;20223;-77
2022/05/11 03:37:14;;;;;;;11.73;8.53;;;17.70;77.40;;;;;;5057915;28;20463;-77
2022/05/11 03:39:40;;;;;;;12.93;7.77;;;17.70;77.10;;;;;;5054075;28;20458;-77
2022/05/11 03:42:11;;;;;;;9.53;6.77;;;17.70;76.80;;;;;;5054881;28;20479;-77
2022/05/11 03:44:37;;;;;;;10.47;7.30;;;17.80;76.70;;;;;;5054518;28;20433;-78
2022/05/11 03:47:03;;;;;;;9.73;6.40;;;17.80;76.70;;;;;;5054982;28;20419;-79
2022/05/11 03:49:29;;;;;;;13.10;7.70;;;17.80;76.40;;;;;;5054552;28;20452;-76
2022/05/11 03:51:55;;;;;;;10.07;7.60;;;17.80;76.40;;;;;;5052024;28;20490;-76
2022/05/11 03:54:21;;;;;;;10.13;6.77;;;17.70;76.50;;;;;;5053814;28;20211;-77
2022/05/11 03:56:46;;;;;;;10.13;7.23;;;17.70;76.70;;;;;;5053422;28;20472;-77
2022/05/11 03:59:13;;;;;;;10.83;7.23;;;17.70;76.70;;;;;;5054089;28;20277;-76
2022/05/11 04:01:38;;;;;;;9.90;6.97;;;17.60;76.70;;;;;;5057111;28;20221;-76
2022/05/11 04:04:05;;;;;;;10.50;7.00;;;17.50;77.10;;;;;;5058260;28;20423;-75
2022/05/11 04:06:31;;;;;;;10.93;7.37;;;17.50;77.10;;;;;;5050349;28;20669;-76
2022/05/11 04:08:58;;;;;;;10.60;6.77;;;17.50;77.30;;;;;;5060807;28;20420;-75
2022/05/11 04:11:25;;;;;;;11.33;7.37;;;17.40;77.40;;;;;;5059713;28;20445;-75
2022/05/11 04:13:51;;;;;;;11.33;7.47;;;17.50;77.10;;;;;;5052367;28;20426;-76
2022/05/11 04:16:17;;;;;;;11.00;7.67;;;17.40;77.70;;;;;;5052509;28;20427;-76
2022/05/11 04:18:44;;;;;;;10.50;6.70;;;17.30;77.60;;;;;;5050811;28;20456;-77
2022/05/11 04:21:10;;;;;;;12.17;7.93;;;17.40;77.30;;;;;;5051359;28;20451;-77
2022/05/11 04:23:36;;;;;;;13.10;8.17;;;17.40;76.80;;;;;;5052493;28;20430;-76
2022/05/11 04:26:03;;;;;;;12.13;7.33;;;17.50;76.50;;;;;;5053533;28;20427;-76
2022/05/11 04:28:30;;;;;;;10.40;6.50;;;17.50;75.80;;;;;;5055398;28;20514;-77
2022/05/11 04:31:07;;;;;;;8.53;6.50;;;17.50;75.40;;;;;;5053832;28;20454;-76
2022/05/11 04:33:34;;;;;;;8.93;7.10;;;17.60;75.40;;;;;;5052887;28;20429;-77
2022/05/11 04:36:01;;;;;;;9.57;6.80;;;17.70;74.60;;;;;;5053399;28;21242;-76
2022/05/11 04:38:27;;;;;;;10.37;7.10;;;17.70;74.30;;;;;;5053707;28;20515;-76
2022/05/11 04:40:53;;;;;;;8.03;6.00;;;17.80;74.30;;;;;;5056058;28;20442;-75
2022/05/11 04:43:19;;;;;;;15.10;6.70;;;17.80;73.70;;;;;;5057558;28;21059;-77
2022/05/11 04:45:46;;;;;;;9.57;6.53;;;17.80;73.70;;;;;;5057126;28;20202;-77
2022/05/11 04:48:13;;;;;;;10.40;6.83;;;17.80;73.90;;;;;;5054064;28;20500;-76
2022/05/11 04:50:43;;;;;;;10.07;6.80;;;17.70;74.30;;;;;;5057416;28;20523;-76
2022/05/11 04:53:11;;;;;;;11.47;6.87;;;17.70;74.30;;;;;;5058278;28;20490;-77
2022/05/11 04:55:37;;;;;;;9.20;7.00;;;17.70;74.80;;;;;;5057383;28;20423;-76
2022/05/11 04:58:04;;;;;;;13.77;6.70;;;17.60;75.10;;;;;;5045343;28;20453;-77
2022/05/11 05:00:34;;;;;;;13.27;6.47;;;17.50;75.20;;;;;;5051980;28;20513;-76
2022/05/11 05:03:05;;;;;;;10.30;7.30;;;17.50;75.70;;;;;;5051986;28;20477;-76
2022/05/11 05:05:31;;;;;;;9.47;7.10;;;17.40;75.70;;;;;;5046890;28;20944;-77
2022/05/11 05:07:57;;;;;;;13.10;7.00;;;17.40;75.80;;;;;;5053612;28;20941;-76
2022/05/11 05:10:23;;;;;;;9.57;6.80;;;17.40;75.80;;;;;;5052987;28;20461;-77
2022/05/11 05:12:48;;;;;;;10.23;6.77;;;17.40;75.90;;;;;;5051664;28;20191;-77
2022/05/11 05:15:16;;;;;;;11.83;6.80;;;17.30;75.90;;;;;;5053082;28;20448;-76
2022/05/11 05:17:42;;;;;;;12.07;7.17;;;17.40;76.10;;;;;;5051277;28;20667;-76
2022/05/11 05:20:11;;;;;;;13.40;7.70;;;17.40;76.10;;;;;;5052599;28;20508;-77
2022/05/11 05:22:37;;;;;;;12.43;7.00;;;17.30;76.50;;;;;;5051324;28;20513;-77
2022/05/11 05:25:04;;;;;;;11.33;7.53;;;17.30;76.40;;;;;;5053041;28;20933;-78
2022/05/11 05:27:29;;;;;;;13.93;7.63;;;17.30;76.40;;;;;;5052040;28;20411;-76
2022/05/11 05:32:43;;;;;;;10.93;7.30;;;17.40;76.50;;;;;;5055595;28;20200;-78
2022/05/11 05:35:11;;;;;;;11.20;7.00;;;17.40;76.20;;;;;;5058950;28;20858;-77
2022/05/11 05:37:38;;;;;;;12.10;7.50;;;17.50;75.90;;;;;;5057836;28;20448;-77
2022/05/11 05:40:05;;;;;;;12.07;7.20;;;17.60;75.50;;;;;;5051778;28;20441;-77
2022/05/11 05:42:31;;;;;;;11.00;6.80;;;17.80;74.80;;;;;;5052338;28;20478;-77
2022/05/11 05:44:57;;;;;;;12.77;6.70;;;17.80;74.50;;;;;;5053411;28;20423;-78
2022/05/11 05:47:23;;;;;;;9.40;6.87;;;18.00;74.20;;;;;;5054021;28;20442;-76
2022/05/11 05:49:49;;;;;;;9.07;6.53;;;18.10;73.70;;;;;;5053496;28;20539;-76
2022/05/11 05:52:24;;;;;;;11.07;6.90;;;18.20;73.50;;;;;;5053622;28;20211;-78
2022/05/11 05:54:54;;;;;;;10.10;7.00;;;18.30;73.30;;;;;;5054372;28;20543;-79
2022/05/11 05:57:19;;;;;;;11.47;7.10;;;18.40;72.90;;;;;;5055661;28;20429;-77
2022/05/11 05:59:45;;;;;;;13.33;7.83;;;18.40;73.00;;;;;;5055313;28;20854;-76
2022/05/11 06:02:16;;;;;;;9.83;7.00;;;18.50;72.70;;;;;;5059489;28;20267;-77
2022/05/11 06:04:47;;;;;;;14.00;7.63;;;18.60;72.40;;;;;;5054730;28;20429;-75
2022/05/11 06:07:13;;;;;;;15.43;8.00;;;18.70;72.30;;;;;;5057149;28;20964;-76
2022/05/11 06:09:40;;;;;;;10.70;6.90;;;18.80;72.30;;;;;;5061178;28;20437;-76
2022/05/11 06:12:08;;;;;;;10.13;6.57;;;18.90;72.00;;;;;;5059663;28;20450;-76
2022/05/11 06:14:34;;;;;;;12.93;7.10;;;19.00;71.70;;;;;;5055824;28;20545;-77
2022/05/11 06:17:01;;;;;;;10.67;7.27;;;19.10;71.10;;;;;;5059116;28;20432;-77
2022/05/11 06:19:27;;;;;;;10.07;7.13;;;19.10;71.00;;;;;;5061440;28;20448;-77
2022/05/11 06:21:53;;;;;;;9.20;6.80;;;19.20;70.50;;;;;;5059812;28;20473;-77
2022/05/11 06:24:19;;;;;;;11.03;7.47;;;19.30;70.80;;;;;;5055914;28;20959;-76
2022/05/11 06:26:46;;;;;;;9.80;7.10;;;19.40;70.50;;;;;;5056214;28;20533;-76
2022/05/11 06:29:12;;;;;;;17.20;7.70;;;19.50;70.20;;;;;;5057593;28;20486;-77
2022/05/11 06:31:38;;;;;;;9.63;6.73;;;19.60;69.80;;;;;;5057999;28;20546;-78
2022/05/11 06:34:04;;;;;;;14.07;6.47;;;19.70;69.70;;;;;;5058165;28;20482;-78
2022/05/11 06:36:29;;;;;;;9.00;6.50;;;19.70;69.40;;;;;;5059278;28;20433;-78
2022/05/11 06:38:56;;;;;;;11.50;6.30;;;19.80;68.90;;;;;;5057454;28;20181;-76
2022/05/11 06:41:25;;;;;;;13.07;7.87;;;19.90;68.50;;;;;;5059054;28;20478;-77
2022/05/11 06:43:52;;;;;;;10.70;8.00;;;20.00;68.30;;;;;;5058948;28;20423;-77
2022/05/11 06:46:18;;;;;;;10.60;7.13;;;20.10;67.90;;;;;;5076807;28;20487;-78
2022/05/11 06:48:48;;;;;;;7.67;6.07;;;20.20;67.50;;;;;;5063176;28;20434;-77
2022/05/11 06:51:15;;;;;;;10.00;6.67;;;20.20;67.30;;;;;;5061276;28;20455;-78
2022/05/11 06:59:22;;;;;;;8.50;6.93;;;20.40;66.60;;;;;;5063369;28;20431;-78
2022/05/11 07:01:58;;;;;;;9.43;6.07;;;20.50;66.10;;;;;;5066125;28;20473;-78
2022/05/11 07:04:25;;;;;;;8.17;6.43;;;20.50;66.10;;;;;;5044958;28;20451;-78
2022/05/11 07:06:52;;;;;;;17.40;7.20;;;20.70;66.10;;;;;;5057506;28;20962;-76
2022/05/11 07:09:23;;;;;;;11.77;6.83;;;20.80;65.10;;;;;;5069345;28;20911;-77
2022/05/11 07:14:33;;;;;;;10.40;6.23;;;21.00;64.40;;;;;;5063503;28;20448;-76
2022/05/11 07:16:59;;;;;;;12.23;6.00;;;21.10;64.10;;;;;;5066433;28;20421;-77
2022/05/11 07:19:25;;;;;;;8.60;6.60;;;21.10;63.20;;;;;;5067992;28;20198;-78
2022/05/11 07:21:51;;;;;;;7.90;6.13;;;21.20;63.40;;;;;;5068623;28;20515;-78
2022/05/11 07:24:17;;;;;;;7.50;5.90;;;21.30;62.90;;;;;;5069573;28;20425;-78
2022/05/11 07:26:43;;;;;;;9.20;6.10;;;21.40;62.50;;;;;;5067182;28;20454;-76
2022/05/11 07:29:09;;;;;;;9.87;6.10;;;21.50;62.20;;;;;;5063298;28;20636;-78
2022/05/11 07:31:35;;;;;;;10.73;6.40;;;21.60;61.60;;;;;;5058511;28;20476;-78
2022/05/11 07:34:00;;;;;;;9.73;6.33;;;21.70;61.30;;;;;;5059603;28;20187;-76
2022/05/11 07:36:26;;;;;;;7.03;5.70;;;21.80;61.00;;;;;;5061395;28;20196;-75
2022/05/11 07:38:52;;;;;;;10.03;5.60;;;21.90;60.60;;;;;;5063343;28;20187;-77
2022/05/11 07:41:18;;;;;;;7.43;5.40;;;21.90;60.30;;;;;;5061153;28;20206;-77
2022/05/11 07:43:44;;;;;;;8.17;5.60;;;22.00;60.70;;;;;;5057754;28;20191;-75
2022/05/11 07:46:09;;;;;;;9.07;6.30;;;22.10;60.10;;;;;;5057332;28;20188;-77
2022/05/11 07:48:36;;;;;;;6.93;5.67;;;22.20;60.00;;;;;;5054208;28;20943;-76
2022/05/11 07:51:02;;;;;;;10.83;5.80;;;22.30;60.00;;;;;;5053679;28;20272;-76
2022/05/11 07:53:28;;;;;;;6.17;5.70;;;22.40;59.60;;;;;;5053973;28;20999;-77
2022/05/11 08:01:23;;;;;;;8.60;5.70;;;22.60;57.70;;;;;;5047397;28;20530;-75
2022/05/11 08:03:49;;;;;;;6.57;4.93;;;22.70;57.20;;;;;;5051832;28;20426;-75
2022/05/11 08:06:18;;;;;;;9.40;5.60;;;22.80;56.90;;;;;;5046678;28;20703;-76
2022/05/11 08:08:45;;;;;;;7.13;5.20;;;22.90;56.60;;;;;;5053427;28;20197;-75
2022/05/11 08:11:11;;;;;;;7.10;5.50;;;23.00;56.50;;;;;;5053352;28;20454;-75
2022/05/11 08:13:37;;;;;;;6.43;5.13;;;23.00;55.60;;;;;;5051724;28;20459;-77
2022/05/11 08:16:03;;;;;;;7.33;4.97;;;23.10;55.20;;;;;;5054187;28;20879;-76
2022/05/11 08:18:29;;;;;;;10.53;5.97;;;23.10;55.40;;;;;;5056542;28;20421;-75
2022/05/11 08:20:55;;;;;;;6.87;5.10;;;23.20;55.30;;;;;;5055663;28;21004;-74
2022/05/11 08:23:21;;;;;;;6.83;5.47;;;23.30;54.90;;;;;;5055447;28;20226;-76
2022/05/11 08:25:49;;;;;;;10.53;5.57;;;23.40;55.20;;;;;;5054750;28;20899;-76
2022/05/11 08:28:19;;;;;;;8.27;5.97;;;23.50;54.40;;;;;;5057494;28;20430;-74
2022/05/11 08:33:32;;;;;;;6.20;4.53;;;23.60;54.10;;;;;;5056122;28;20435;-75
2022/05/11 08:36:09;;;;;;;7.50;5.40;;;23.80;53.80;;;;;;5053679;28;20456;-74
2022/05/11 08:38:39;;;;;;;6.47;4.80;;;24.00;53.40;;;;;;5048775;28;20434;-77
2022/05/11 08:41:04;;;;;;;9.00;5.57;;;24.10;52.80;;;;;;5047526;28;20441;-77
2022/05/11 08:43:31;;;;;;;7.33;5.10;;;24.10;52.60;;;;;;5054472;28;20517;-77
2022/05/11 08:46:20;;;;;;;8.00;5.37;;;24.20;51.80;;;;;;5054426;28;20219;-77
2022/05/11 08:49:03;;;;;;;6.10;5.17;;;24.20;50.60;;;;;;5057015;28;20449;-75
2022/05/11 08:51:42;;;;;;;7.47;4.50;;;24.20;51.40;;;;;;5056419;28;20440;-77
2022/05/11 08:54:12;;;;;;;6.63;5.10;;;24.30;50.10;;;;;;5057440;28;21029;-77
2022/05/11 08:56:40;;;;;;;8.40;5.80;;;24.40;50.50;;;;;;5056599;28;20514;-76
2022/05/11 08:59:08;;;;;;;9.80;5.87;;;24.50;50.90;;;;;;5057183;28;20431;-77
2022/05/11 09:02:05;;;;;;;9.30;6.67;;;24.60;50.60;;;;;;5054446;28;20516;-78
2022/05/11 09:04:46;;;;;;;7.07;5.53;;;24.70;50.70;;;;;;5046576;28;20430;-74
2022/05/11 09:07:11;;;;;;;13.20;6.03;;;24.70;50.30;;;;;;5049764;28;20414;-73
2022/05/11 09:09:38;;;;;;;8.17;6.33;;;24.80;50.70;;;;;;5052960;28;20484;-73
2022/05/11 09:12:05;;;;;;;12.03;6.40;;;24.60;51.20;;;;;;5052008;28;20205;-72
2022/05/11 09:14:40;;;;;;;9.27;6.40;;;24.60;51.60;;;;;;5053604;28;21174;-75
2022/05/11 09:17:40;;;;;;;8.17;6.20;;;24.70;51.80;;;;;;5053721;28;20418;-74
2022/05/11 09:20:09;;;;;;;8.03;6.13;;;24.70;52.00;;;;;;5052932;28;20431;-73
2022/05/11 09:22:59;;;;;;;10.37;6.20;;;24.70;50.50;;;;;;5053914;28;20459;-74
2022/05/11 09:25:49;;;;;;;8.87;6.90;;;24.80;50.70;;;;;;5053340;28;20500;-74
2022/05/11 09:28:25;;;;;;;15.43;6.83;;;25.00;50.90;;;;;;5051723;28;20937;-73
2022/05/11 09:31:01;;;;;;;9.00;6.00;;;25.10;51.20;;;;;;5051592;28;20437;-76
2022/05/11 09:33:30;;;;;;;9.67;6.33;;;25.30;51.30;;;;;;5049888;28;20974;-74
2022/05/11 09:35:57;;;;;;;8.87;6.73;;;25.30;50.20;;;;;;5052115;28;20499;-77
2022/05/11 09:38:38;;;;;;;8.23;6.67;;;25.20;50.70;;;;;;5052408;28;20427;-77
2022/05/11 09:41:19;;;;;;;9.97;6.33;;;25.20;50.60;;;;;;5046234;28;20429;-76
2022/05/11 09:43:46;;;;;;;16.13;6.70;;;25.30;50.30;;;;;;5054430;28;20413;-77
2022/05/11 09:46:23;;;;;;;9.80;6.87;;;25.30;50.70;;;;;;5056115;28;20417;-78
2022/05/11 09:49:07;;;;;;;10.47;7.13;;;25.30;50.90;;;;;;5057270;28;20420;-75
2022/05/11 09:51:41;;;;;;;10.30;7.50;;;25.40;51.20;;;;;;5056512;28;20803;-79
2022/05/11 09:54:42;;;;;;;11.90;6.90;;;25.60;50.60;;;;;;5051633;28;20469;-77
2022/05/11 09:57:08;;;;;;;9.33;7.20;;;25.90;49.70;;;;;;5055802;28;20425;-76
2022/05/11 09:59:46;;;;;;;9.57;6.80;;;26.20;49.30;;;;;;5057787;28;20436;-78
2022/05/11 10:02:32;;;;;;;12.40;7.30;;;26.10;49.10;;;;;;5055480;28;20237;-75
2022/05/11 10:05:13;;;;;;;10.83;7.57;;;26.30;48.60;;;;;;5059250;28;20485;-79
2022/05/11 10:08:00;;;;;;;12.60;7.23;;;26.40;48.90;;;;;;5061250;28;20501;-77
2022/05/11 10:10:33;;;;;;;9.37;6.90;;;26.60;47.90;;;;;;5043182;28;20521;-78
2022/05/11 10:13:11;;;;;;;13.00;6.93;;;26.80;47.10;;;;;;5059338;28;20756;-78
2022/05/11 10:24:26;;;;;;;7.70;6.17;;;26.60;47.10;;;;;;5048270;28;20494;-78
2022/05/11 10:26:59;;;;;;;9.30;7.20;;;26.70;47.40;;;;;;5057922;28;20513;-77
2022/05/11 10:30:06;;;;;;;9.30;6.43;;;27.00;46.30;;;;;;5057637;28;20482;-78
2022/05/11 10:32:40;;;;;;;8.47;6.57;;;27.10;45.90;;;;;;4994550;28;20990;-77
2022/05/11 10:35:23;;;;;;;8.37;6.97;;;27.20;44.90;;;;;;5050124;28;20437;-78
2022/05/11 10:38:01;;;;;;;9.93;7.03;;;27.10;44.90;;;;;;5057368;28;20967;-77
2022/05/11 10:40:46;;;;;;;8.40;6.20;;;27.40;44.30;;;;;;5055830;28;20989;-76
2022/05/11 10:43:30;;;;;;;10.63;6.17;;;27.50;43.70;;;;;;5055592;28;20466;-79
2022/05/11 10:46:11;;;;;;;8.87;6.00;;;27.70;43.70;;;;;;5054222;28;20444;-77
2022/05/11 10:48:55;;;;;;;10.47;6.40;;;27.90;42.60;;;;;;5060770;28;20421;-78
2022/05/11 10:51:55;;;;;;;9.67;6.10;;;27.60;42.00;;;;;;5053691;28;20477;-78
2022/05/11 10:55:01;;;;;;;7.73;6.27;;;27.70;41.50;;;;;;5035296;28;20449;-79
2022/05/11 10:57:33;;;;;;;7.93;6.10;;;27.50;40.80;;;;;;5054559;28;20838;-78
2022/05/11 11:00:05;;;;;;;8.37;6.37;;;27.60;40.60;;;;;;5055258;28;20453;-77
2022/05/11 11:03:09;;;;;;;8.93;5.70;;;27.70;39.80;;;;;;5055375;28;20976;-77
2022/05/11 11:09:16;;;;;;;6.57;5.57;;;28.00;40.00;;;;;;5029053;28;20403;-76
2022/05/11 11:12:02;;;;;;;6.20;5.60;;;28.10;40.40;;;;;;5027847;28;20451;-76
2022/05/11 11:14:50;;;;;;;6.03;5.63;;;28.20;39.10;;;;;;5019290;28;20439;-77
2022/05/11 11:17:20;;;;;;;8.83;5.00;;;28.50;38.80;;;;;;5031079;28;20451;-79
2022/05/11 11:19:52;;;;;;;11.17;6.57;;;28.70;37.50;;;;;;5031322;28;20420;-77
2022/05/11 11:22:18;;;;;;;6.87;6.00;;;28.00;39.10;;;;;;5031026;28;20471;-77
2022/05/11 11:25:10;;;;;;;9.10;6.20;;;27.80;39.60;;;;;;5031025;28;20435;-76
2022/05/11 11:28:03;;;;;;;9.57;6.20;;;27.60;40.60;;;;;;5030862;28;20424;-79
2022/05/11 11:30:29;;;;;;;7.63;6.00;;;27.80;40.80;;;;;;5031684;28;20956;-76
2022/05/11 11:33:13;;;;;;;6.47;5.70;;;27.60;41.20;;;;;;5032688;28;20444;-77
2022/05/11 11:35:51;;;;;;;15.30;5.90;;;27.90;41.00;;;;;;5032784;28;20690;-76
2022/05/11 11:38:29;;;;;;;8.80;5.73;;;27.70;40.00;;;;;;5051167;28;20430;-77
2022/05/11 11:41:18;;;;;;;8.10;5.60;;;27.90;40.70;;;;;;5053866;28;21064;-78
2022/05/11 11:43:45;;;;;;;6.70;5.27;;;28.50;40.30;;;;;;5051254;28;20983;-76
2022/05/11 11:46:36;;;;;;;8.07;5.90;;;28.80;39.20;;;;;;5054569;28;20782;-77
2022/05/11 11:49:06;;;;;;;6.70;5.70;;;29.00;38.60;;;;;;5055745;28;20423;-76
2022/05/11 11:52:00;;;;;;;6.73;5.70;;;29.30;38.20;;;;;;5053436;28;20435;-78
2022/05/11 11:54:26;;;;;;;12.30;5.23;;;29.20;36.40;;;;;;5053173;28;20500;-76
2022/05/11 11:56:54;;;;;;;9.03;5.60;;;28.90;36.80;;;;;;5052949;28;20416;-78
2022/05/11 11:59:23;;;;;;;5.90;5.00;;;28.80;37.00;;;;;;5053242;28;20184;-76
2022/05/11 12:01:52;;;;;;;6.63;5.50;;;28.50;37.20;;;;;;5053468;28;20470;-76
2022/05/11 12:04:41;;;;;;;7.10;5.53;;;28.60;37.40;;;;;;5050051;28;20423;-77
2022/05/11 12:15:39;;;;;;;7.73;5.10;;;29.10;34.10;;;;;;5062318;28;20472;-76
2022/05/11 12:18:29;;;;;;;5.80;5.03;;;29.20;33.20;;;;;;5053876;28;20505;-78
2022/05/11 12:20:55;;;;;;;7.57;5.47;;;29.40;33.60;;;;;;5056479;28;20434;-79
2022/05/11 12:23:33;;;;;;;5.37;4.50;;;29.80;32.40;;;;;;5051443;28;20470;-78
2022/05/11 12:26:03;;;;;;;10.00;5.27;;;30.00;32.30;;;;;;5051118;28;20426;-76
2022/05/11 12:28:33;;;;;;;7.03;4.90;;;30.00;32.10;;;;;;5051526;28;20418;-78
2022/05/11 12:30:59;;;;;;;8.80;4.50;;;30.00;31.60;;;;;;5050766;28;20431;-77
2022/05/11 12:33:32;;;;;;;13.40;4.40;;;29.80;29.70;;;;;;5051507;28;20469;-77
2022/05/11 12:35:59;;;;;;;5.83;4.40;;;29.70;29.80;;;;;;5054731;28;20435;-78
2022/05/11 12:38:31;;;;;;;9.03;4.80;;;29.40;29.70;;;;;;5051687;28;20433;-77
2022/05/11 12:40:59;;;;;;;4.90;4.60;;;29.50;30.30;;;;;;5053850;28;20450;-77
2022/05/11 12:43:26;;;;;;;5.93;4.60;;;29.60;29.80;;;;;;5055416;28;21070;-76
2022/05/11 12:46:01;;;;;;;5.87;4.07;;;29.80;29.40;;;;;;5050900;28;20845;-76
2022/05/11 12:48:50;;;;;;;6.20;4.80;;;29.80;29.60;;;;;;5049480;28;20423;-77
2022/05/11 12:51:17;;;;;;;18.53;9.40;;;29.80;29.60;;;;;;5050590;28;20443;-78
2022/05/11 12:53:52;;;;;;;10.50;7.40;;;29.90;29.80;;;;;;5050462;28;20439;-77
2022/05/11 12:56:32;;;;;;;8.43;4.80;;;29.60;30.30;;;;;;5051518;28;20423;-77
2022/05/11 12:59:05;;;;;;;6.30;5.40;;;29.70;30.50;;;;;;5052374;28;20929;-77
2022/05/11 13:01:33;;;;;;;6.87;4.50;;;29.90;30.10;;;;;;5053826;28;20489;-77
2022/05/11 13:04:14;;;;;;;7.53;4.87;;;30.00;30.10;;;;;;5051680;28;20430;-77
2022/05/11 13:06:43;;;;;;;5.40;4.20;;;30.00;29.70;;;;;;5052436;28;20418;-77
2022/05/11 13:09:38;;;;;;;8.90;5.00;;;30.20;29.60;;;;;;5053593;28;20500;-78
2022/05/11 13:12:06;;;;;;;5.67;4.60;;;30.40;28.40;;;;;;5051731;28;20493;-77
2022/05/11 13:14:36;;;;;;;6.00;4.27;;;30.40;28.50;;;;;;5052518;28;20422;-77
2022/05/11 13:17:05;;;;;;;8.33;4.00;;;30.60;28.10;;;;;;5051241;28;20416;-77
2022/05/11 13:19:39;;;;;;;6.63;4.80;;;30.60;28.10;;;;;;5051236;28;20445;-77
2022/05/11 13:22:14;;;;;;;5.67;4.30;;;30.40;28.40;;;;;;5050261;28;20473;-77
2022/05/11 13:24:48;;;;;;;6.60;4.53;;;30.70;28.60;;;;;;5051086;28;20518;-78
2022/05/11 13:27:43;;;;;;;15.13;5.00;;;30.90;28.40;;;;;;5049985;28;20429;-76
2022/05/11 13:30:27;;;;;;;5.50;4.20;;;30.50;28.00;;;;;;5050382;28;20419;-77
2022/05/11 13:32:58;;;;;;;5.20;4.10;;;30.10;29.00;;;;;;5050322;28;20783;-78
2022/05/11 13:35:44;;;;;;;8.03;4.33;;;30.00;29.10;;;;;;5048559;28;20713;-77
2022/05/11 13:38:10;;;;;;;10.83;4.77;;;29.90;29.80;;;;;;5046330;28;20816;-78
2022/05/11 13:40:40;;;;;;;8.63;4.50;;;30.50;29.50;;;;;;5050124;28;20492;-78
2022/05/11 13:43:51;;;;;;;8.50;4.53;;;31.30;27.00;;;;;;5047292;28;20222;-78